sensor_id;sensor_type;location;lat;lon;timestamp;temperature;humidity
21787;DHT22;11055;50.870;4.316;2022-12-29T00:01:39;11.80;99.90
21787;DHT22;11055;50.870;4.316;2022-12-29T00:04:05;11.80;99.90
21787;DHT22;11055;50.870;4.316;2022-12-29T00:06:31;11.80;99.90
21787;DHT22;11055;50.870;4.316;2022-12-29T00:08:57;11.80;99.90
21787;DHT22;11055;50.870;4.316;2022-12-29T00:11:25;11.80;99.90
21787;DHT22;11055;50.870;4.316;2022-12-29T00:13:51;11.80;99.90
21787;DHT22;11055;50.870;4.316;2022-12-29T00:16:36;11.80;99.90
21787;DHT22;11055;50.870;4.316;2022-12-29T00:19:04;11.80;99.90
21787;DHT22;11055;50.870;4.316;2022-12-29T00:21:30;11.80;99.90
21787;DHT22;11055;50.870;4.316;2022-12-29T00:24:17;11.90;99.90
21787;DHT22;11055;50.870;4.316;2022-12-29T00:27:07;11.90;99.90
21787;DHT22;11055;50.870;4.316;2022-12-29T00:29:57;11.90;99.90
21787;DHT22;11055;50.870;4.316;2022-12-29T00:32:41;11.80;99.90
21787;DHT22;11055;50.870;4.316;2022-12-29T00:35:34;11.80;99.90
21787;DHT22;11055;50.870;4.316;2022-12-29T00:38:05;11.90;99.90
21787;DHT22;11055;50.870;4.316;2022-12-29T00:40:50;11.90;99.90
21787;DHT22;11055;50.870;4.316;2022-12-29T00:43:34;11.90;99.90
21787;DHT22;11055;50.870;4.316;2022-12-29T00:46:18;11.90;99.90
21787;DHT22;11055;50.870;4.316;2022-12-29T00:48:44;11.90;99.90
21787;DHT22;11055;50.870;4.316;2022-12-29T00:51:28;11.90;99.90
21787;DHT22;11055;50.870;4.316;2022-12-29T00:53:54;12.00;99.90
21787;DHT22;11055;50.870;4.316;2022-12-29T00:56:19;12.00;99.90
21787;DHT22;11055;50.870;4.316;2022-12-29T00:58:45;12.00;99.90
21787;DHT22;11055;50.870;4.316;2022-12-29T01:01:11;12.00;99.90
21787;DHT22;11055;50.870;4.316;2022-12-29T01:03:37;12.00;99.90
21787;DHT22;11055;50.870;4.316;2022-12-29T01:06:09;12.00;99.90
21787;DHT22;11055;50.870;4.316;2022-12-29T01:08:35;12.00;99.90
21787;DHT22;11055;50.870;4.316;2022-12-29T01:11:06;12.00;99.90
21787;DHT22;11055;50.870;4.316;2022-12-29T01:13:32;12.00;99.90
21787;DHT22;11055;50.870;4.316;2022-12-29T01:15:58;12.00;99.90
21787;DHT22;11055;50.870;4.316;2022-12-29T01:18:25;12.00;99.90
21787;DHT22;11055;50.870;4.316;2022-12-29T01:20:51;12.10;99.90
21787;DHT22;11055;50.870;4.316;2022-12-29T01:23:23;12.00;99.90
21787;DHT22;11055;50.870;4.316;2022-12-29T01:25:48;11.90;99.90
21787;DHT22;11055;50.870;4.316;2022-12-29T01:28:14;11.90;99.90
21787;DHT22;11055;50.870;4.316;2022-12-29T01:30:40;11.80;99.90
21787;DHT22;11055;50.870;4.316;2022-12-29T01:33:05;11.70;99.90
21787;DHT22;11055;50.870;4.316;2022-12-29T01:35:31;11.70;99.90
21787;DHT22;11055;50.870;4.316;2022-12-29T01:37:57;11.60;99.90
21787;DHT22;11055;50.870;4.316;2022-12-29T01:40:23;11.60;99.90
21787;DHT22;11055;50.870;4.316;2022-12-29T01:42:49;11.50;99.90
21787;DHT22;11055;50.870;4.316;2022-12-29T01:45:16;11.50;99.90
21787;DHT22;11055;50.870;4.316;2022-12-29T01:48:01;11.50;99.90
21787;DHT22;11055;50.870;4.316;2022-12-29T01:50:30;11.40;99.90
21787;DHT22;11055;50.870;4.316;2022-12-29T01:53:02;11.40;99.90
21787;DHT22;11055;50.870;4.316;2022-12-29T01:55:29;11.40;99.90
21787;DHT22;11055;50.870;4.316;2022-12-29T01:58:00;11.50;99.90
21787;DHT22;11055;50.870;4.316;2022-12-29T02:00:26;11.50;99.90
21787;DHT22;11055;50.870;4.316;2022-12-29T02:02:52;11.50;99.90
21787;DHT22;11055;50.870;4.316;2022-12-29T02:07:51;11.50;99.90
21787;DHT22;11055;50.870;4.316;2022-12-29T02:10:22;11.30;99.90
21787;DHT22;11055;50.870;4.316;2022-12-29T02:12:49;11.30;99.90
21787;DHT22;11055;50.870;4.316;2022-12-29T02:15:15;11.30;99.90
21787;DHT22;11055;50.870;4.316;2022-12-29T02:18:03;11.20;99.90
21787;DHT22;11055;50.870;4.316;2022-12-29T02:45:10;10.40;99.90
21787;DHT22;11055;50.870;4.316;2022-12-29T02:47:43;10.40;99.90
21787;DHT22;11055;50.870;4.316;2022-12-29T02:52:57;10.50;99.90
21787;DHT22;11055;50.870;4.316;2022-12-29T02:55:23;10.50;99.90
21787;DHT22;11055;50.870;4.316;2022-12-29T02:58:13;10.60;99.90
21787;DHT22;11055;50.870;4.316;2022-12-29T03:00:55;10.60;99.90
21787;DHT22;11055;50.870;4.316;2022-12-29T03:03:36;10.60;99.90
21787;DHT22;11055;50.870;4.316;2022-12-29T03:11:19;10.10;99.90
21787;DHT22;11055;50.870;4.316;2022-12-29T03:14:13;10.10;99.90
21787;DHT22;11055;50.870;4.316;2022-12-29T03:17:09;9.90;99.90
21787;DHT22;11055;50.870;4.316;2022-12-29T03:19:46;10.00;99.90
21787;DHT22;11055;50.870;4.316;2022-12-29T03:22:20;10.00;99.90
21787;DHT22;11055;50.870;4.316;2022-12-29T03:27:49;10.10;99.90
21787;DHT22;11055;50.870;4.316;2022-12-29T03:30:16;10.20;99.90
21787;DHT22;11055;50.870;4.316;2022-12-29T03:32:45;10.20;99.90
21787;DHT22;11055;50.870;4.316;2022-12-29T03:35:14;10.20;99.90
21787;DHT22;11055;50.870;4.316;2022-12-29T03:37:51;10.30;99.90
21787;DHT22;11055;50.870;4.316;2022-12-29T03:40:21;10.40;99.90
21787;DHT22;11055;50.870;4.316;2022-12-29T03:42:48;10.50;99.90
21787;DHT22;11055;50.870;4.316;2022-12-29T03:45:14;10.40;99.90
21787;DHT22;11055;50.870;4.316;2022-12-29T03:47:40;10.40;99.90
21787;DHT22;11055;50.870;4.316;2022-12-29T03:50:06;10.50;99.90
21787;DHT22;11055;50.870;4.316;2022-12-29T03:52:34;10.60;99.90
21787;DHT22;11055;50.870;4.316;2022-12-29T03:54:59;10.60;99.90
21787;DHT22;11055;50.870;4.316;2022-12-29T03:57:25;10.70;99.90
21787;DHT22;11055;50.870;4.316;2022-12-29T03:59:51;10.60;99.90
21787;DHT22;11055;50.870;4.316;2022-12-29T04:02:16;10.60;99.90
21787;DHT22;11055;50.870;4.316;2022-12-29T04:04:42;10.60;99.90
21787;DHT22;11055;50.870;4.316;2022-12-29T04:07:07;10.50;99.90
21787;DHT22;11055;50.870;4.316;2022-12-29T04:09:33;10.50;99.90
21787;DHT22;11055;50.870;4.316;2022-12-29T04:11:59;10.50;99.90
21787;DHT22;11055;50.870;4.316;2022-12-29T04:14:24;10.40;99.90
21787;DHT22;11055;50.870;4.316;2022-12-29T04:16:50;10.50;99.90
21787;DHT22;11055;50.870;4.316;2022-12-29T04:19:16;10.30;99.90
21787;DHT22;11055;50.870;4.316;2022-12-29T04:21:41;10.30;99.90
21787;DHT22;11055;50.870;4.316;2022-12-29T04:24:07;10.30;99.90
21787;DHT22;11055;50.870;4.316;2022-12-29T04:26:33;10.30;99.90
21787;DHT22;11055;50.870;4.316;2022-12-29T04:28:59;10.30;99.90
21787;DHT22;11055;50.870;4.316;2022-12-29T04:31:24;10.30;99.90
21787;DHT22;11055;50.870;4.316;2022-12-29T04:33:50;10.40;99.90
21787;DHT22;11055;50.870;4.316;2022-12-29T04:36:16;10.40;99.90
21787;DHT22;11055;50.870;4.316;2022-12-29T04:38:41;10.40;99.90
21787;DHT22;11055;50.870;4.316;2022-12-29T04:41:07;10.50;99.90
21787;DHT22;11055;50.870;4.316;2022-12-29T04:43:33;10.50;99.90
21787;DHT22;11055;50.870;4.316;2022-12-29T04:45:58;10.50;99.90
21787;DHT22;11055;50.870;4.316;2022-12-29T04:48:24;10.50;99.90
21787;DHT22;11055;50.870;4.316;2022-12-29T04:50:50;10.40;99.90
21787;DHT22;11055;50.870;4.316;2022-12-29T04:53:16;10.40;99.90
21787;DHT22;11055;50.870;4.316;2022-12-29T04:55:42;10.40;99.90
21787;DHT22;11055;50.870;4.316;2022-12-29T04:58:08;10.40;99.90
21787;DHT22;11055;50.870;4.316;2022-12-29T05:00:33;10.50;99.90
21787;DHT22;11055;50.870;4.316;2022-12-29T05:02:59;10.50;99.90
21787;DHT22;11055;50.870;4.316;2022-12-29T05:05:25;10.50;99.90
21787;DHT22;11055;50.870;4.316;2022-12-29T05:07:51;10.60;99.90
21787;DHT22;11055;50.870;4.316;2022-12-29T05:10:16;10.70;99.90
21787;DHT22;11055;50.870;4.316;2022-12-29T05:12:42;10.60;99.90
21787;DHT22;11055;50.870;4.316;2022-12-29T05:15:09;10.60;99.90
21787;DHT22;11055;50.870;4.316;2022-12-29T05:17:35;10.60;99.90
21787;DHT22;11055;50.870;4.316;2022-12-29T05:20:02;10.60;99.90
21787;DHT22;11055;50.870;4.316;2022-12-29T05:22:28;10.70;99.90
21787;DHT22;11055;50.870;4.316;2022-12-29T05:24:54;10.80;99.90
21787;DHT22;11055;50.870;4.316;2022-12-29T05:27:19;10.70;99.90
21787;DHT22;11055;50.870;4.316;2022-12-29T05:29:45;10.80;99.90
21787;DHT22;11055;50.870;4.316;2022-12-29T05:32:11;10.90;99.90
21787;DHT22;11055;50.870;4.316;2022-12-29T05:34:36;10.90;99.90
21787;DHT22;11055;50.870;4.316;2022-12-29T05:37:02;10.80;99.90
21787;DHT22;11055;50.870;4.316;2022-12-29T05:39:28;10.90;99.90
21787;DHT22;11055;50.870;4.316;2022-12-29T05:41:54;10.90;99.90
21787;DHT22;11055;50.870;4.316;2022-12-29T05:44:20;10.90;99.90
21787;DHT22;11055;50.870;4.316;2022-12-29T05:46:46;10.90;99.90
21787;DHT22;11055;50.870;4.316;2022-12-29T05:49:11;10.80;99.90
21787;DHT22;11055;50.870;4.316;2022-12-29T05:51:37;10.80;99.90
21787;DHT22;11055;50.870;4.316;2022-12-29T05:54:03;10.70;99.90
21787;DHT22;11055;50.870;4.316;2022-12-29T05:56:28;10.70;99.90
21787;DHT22;11055;50.870;4.316;2022-12-29T05:58:54;10.70;99.90
21787;DHT22;11055;50.870;4.316;2022-12-29T06:01:20;10.80;99.90
21787;DHT22;11055;50.870;4.316;2022-12-29T06:03:45;10.70;99.90
21787;DHT22;11055;50.870;4.316;2022-12-29T06:06:11;10.70;99.90
21787;DHT22;11055;50.870;4.316;2022-12-29T06:08:37;10.70;99.90
21787;DHT22;11055;50.870;4.316;2022-12-29T06:11:02;10.70;99.90
21787;DHT22;11055;50.870;4.316;2022-12-29T06:13:28;10.70;99.90
21787;DHT22;11055;50.870;4.316;2022-12-29T06:15:54;10.60;99.90
21787;DHT22;11055;50.870;4.316;2022-12-29T06:18:19;10.60;99.90
21787;DHT22;11055;50.870;4.316;2022-12-29T06:20:45;10.60;99.90
21787;DHT22;11055;50.870;4.316;2022-12-29T06:23:11;10.60;99.90
21787;DHT22;11055;50.870;4.316;2022-12-29T06:25:40;10.50;99.90
21787;DHT22;11055;50.870;4.316;2022-12-29T06:28:06;10.50;99.90
21787;DHT22;11055;50.870;4.316;2022-12-29T06:30:32;10.50;99.90
21787;DHT22;11055;50.870;4.316;2022-12-29T06:32:58;10.50;99.90
21787;DHT22;11055;50.870;4.316;2022-12-29T06:35:24;10.60;99.90
21787;DHT22;11055;50.870;4.316;2022-12-29T06:37:50;10.60;99.90
21787;DHT22;11055;50.870;4.316;2022-12-29T06:40:16;10.60;99.90
21787;DHT22;11055;50.870;4.316;2022-12-29T06:42:41;10.70;99.90
21787;DHT22;11055;50.870;4.316;2022-12-29T06:45:07;10.80;99.90
21787;DHT22;11055;50.870;4.316;2022-12-29T06:47:34;10.80;99.90
21787;DHT22;11055;50.870;4.316;2022-12-29T06:50:00;10.90;99.90
21787;DHT22;11055;50.870;4.316;2022-12-29T06:52:26;10.80;99.90
21787;DHT22;11055;50.870;4.316;2022-12-29T06:54:54;10.80;99.90
21787;DHT22;11055;50.870;4.316;2022-12-29T06:57:20;10.80;99.90
21787;DHT22;11055;50.870;4.316;2022-12-29T06:59:46;10.80;99.90
21787;DHT22;11055;50.870;4.316;2022-12-29T07:02:13;10.80;99.90
21787;DHT22;11055;50.870;4.316;2022-12-29T07:04:40;10.80;99.90
21787;DHT22;11055;50.870;4.316;2022-12-29T07:07:05;10.90;99.90
21787;DHT22;11055;50.870;4.316;2022-12-29T07:09:31;10.90;99.90
21787;DHT22;11055;50.870;4.316;2022-12-29T07:11:57;10.80;99.90
21787;DHT22;11055;50.870;4.316;2022-12-29T07:14:23;10.90;99.90
21787;DHT22;11055;50.870;4.316;2022-12-29T07:16:48;10.90;99.90
21787;DHT22;11055;50.870;4.316;2022-12-29T07:19:14;10.90;99.90
21787;DHT22;11055;50.870;4.316;2022-12-29T07:21:39;10.90;99.90
21787;DHT22;11055;50.870;4.316;2022-12-29T07:24:05;10.90;99.90
21787;DHT22;11055;50.870;4.316;2022-12-29T07:26:31;10.90;99.90
21787;DHT22;11055;50.870;4.316;2022-12-29T07:28:57;11.00;99.90
21787;DHT22;11055;50.870;4.316;2022-12-29T07:31:23;10.90;99.90
21787;DHT22;11055;50.870;4.316;2022-12-29T07:33:49;10.90;99.90
21787;DHT22;11055;50.870;4.316;2022-12-29T07:36:17;11.00;99.90
21787;DHT22;11055;50.870;4.316;2022-12-29T07:38:42;11.00;99.90
21787;DHT22;11055;50.870;4.316;2022-12-29T07:41:08;11.00;99.90
21787;DHT22;11055;50.870;4.316;2022-12-29T07:43:34;11.10;99.90
21787;DHT22;11055;50.870;4.316;2022-12-29T07:46:00;11.10;99.90
21787;DHT22;11055;50.870;4.316;2022-12-29T07:48:26;11.00;99.90
21787;DHT22;11055;50.870;4.316;2022-12-29T07:50:52;11.00;99.90
21787;DHT22;11055;50.870;4.316;2022-12-29T07:53:18;11.00;99.90
21787;DHT22;11055;50.870;4.316;2022-12-29T07:55:44;11.00;99.90
21787;DHT22;11055;50.870;4.316;2022-12-29T07:58:10;11.00;99.90
21787;DHT22;11055;50.870;4.316;2022-12-29T08:00:36;11.00;99.90
21787;DHT22;11055;50.870;4.316;2022-12-29T08:03:03;11.00;99.90
21787;DHT22;11055;50.870;4.316;2022-12-29T08:05:30;11.00;99.90
21787;DHT22;11055;50.870;4.316;2022-12-29T08:07:56;10.90;99.90
21787;DHT22;11055;50.870;4.316;2022-12-29T08:10:22;10.90;99.90
21787;DHT22;11055;50.870;4.316;2022-12-29T08:12:48;10.90;99.90
21787;DHT22;11055;50.870;4.316;2022-12-29T08:15:13;11.00;99.90
21787;DHT22;11055;50.870;4.316;2022-12-29T08:17:40;11.00;99.90
21787;DHT22;11055;50.870;4.316;2022-12-29T08:20:07;10.90;99.90
21787;DHT22;11055;50.870;4.316;2022-12-29T08:22:34;10.90;99.90
21787;DHT22;11055;50.870;4.316;2022-12-29T08:24:59;10.90;99.90
21787;DHT22;11055;50.870;4.316;2022-12-29T08:27:25;10.90;99.90
21787;DHT22;11055;50.870;4.316;2022-12-29T08:29:51;10.90;99.90
21787;DHT22;11055;50.870;4.316;2022-12-29T08:32:17;10.90;99.90
21787;DHT22;11055;50.870;4.316;2022-12-29T08:34:43;10.90;99.90
21787;DHT22;11055;50.870;4.316;2022-12-29T08:37:09;11.00;99.90
21787;DHT22;11055;50.870;4.316;2022-12-29T08:39:34;11.00;99.90
21787;DHT22;11055;50.870;4.316;2022-12-29T08:42:00;11.00;99.90
21787;DHT22;11055;50.870;4.316;2022-12-29T08:44:26;11.00;99.90
21787;DHT22;11055;50.870;4.316;2022-12-29T08:46:51;11.00;99.90
21787;DHT22;11055;50.870;4.316;2022-12-29T08:49:17;10.90;99.90
21787;DHT22;11055;50.870;4.316;2022-12-29T08:51:43;10.90;99.90
21787;DHT22;11055;50.870;4.316;2022-12-29T08:54:08;10.90;99.90
21787;DHT22;11055;50.870;4.316;2022-12-29T08:56:35;10.90;99.90
21787;DHT22;11055;50.870;4.316;2022-12-29T08:59:00;10.90;99.90
21787;DHT22;11055;50.870;4.316;2022-12-29T09:01:26;10.90;99.90
21787;DHT22;11055;50.870;4.316;2022-12-29T09:03:53;10.90;99.90
21787;DHT22;11055;50.870;4.316;2022-12-29T09:06:20;10.90;99.90
21787;DHT22;11055;50.870;4.316;2022-12-29T09:08:45;10.80;99.90
21787;DHT22;11055;50.870;4.316;2022-12-29T09:11:20;10.90;99.90
21787;DHT22;11055;50.870;4.316;2022-12-29T09:13:47;10.80;99.90
21787;DHT22;11055;50.870;4.316;2022-12-29T09:16:14;10.80;99.90
21787;DHT22;11055;50.870;4.316;2022-12-29T09:18:40;10.80;99.90
21787;DHT22;11055;50.870;4.316;2022-12-29T09:21:07;10.80;99.90
21787;DHT22;11055;50.870;4.316;2022-12-29T09:23:33;10.80;99.90
21787;DHT22;11055;50.870;4.316;2022-12-29T09:26:00;10.70;99.90
21787;DHT22;11055;50.870;4.316;2022-12-29T09:28:25;10.60;99.90
21787;DHT22;11055;50.870;4.316;2022-12-29T09:30:51;10.70;99.90
21787;DHT22;11055;50.870;4.316;2022-12-29T09:33:17;10.60;99.90
21787;DHT22;11055;50.870;4.316;2022-12-29T09:35:44;10.40;99.90
21787;DHT22;11055;50.870;4.316;2022-12-29T09:38:10;10.30;99.90
21787;DHT22;11055;50.870;4.316;2022-12-29T09:40:37;10.30;99.90
21787;DHT22;11055;50.870;4.316;2022-12-29T09:48:47;10.50;99.90
21787;DHT22;11055;50.870;4.316;2022-12-29T09:51:17;10.50;99.90
21787;DHT22;11055;50.870;4.316;2022-12-29T09:53:53;10.60;99.90
21787;DHT22;11055;50.870;4.316;2022-12-29T09:56:24;10.60;99.90
21787;DHT22;11055;50.870;4.316;2022-12-29T09:58:58;10.70;99.90
21787;DHT22;11055;50.870;4.316;2022-12-29T10:01:38;10.80;99.90
21787;DHT22;11055;50.870;4.316;2022-12-29T10:04:07;10.90;99.90
21787;DHT22;11055;50.870;4.316;2022-12-29T10:09:34;10.90;99.90
21787;DHT22;11055;50.870;4.316;2022-12-29T10:12:12;10.80;99.90
21787;DHT22;11055;50.870;4.316;2022-12-29T10:17:42;10.90;99.90
21787;DHT22;11055;50.870;4.316;2022-12-29T10:23:40;11.00;99.90
21787;DHT22;11055;50.870;4.316;2022-12-29T10:26:15;11.00;99.90
21787;DHT22;11055;50.870;4.316;2022-12-29T10:31:18;11.00;99.90
21787;DHT22;11055;50.870;4.316;2022-12-29T10:33:49;11.00;99.90
21787;DHT22;11055;50.870;4.316;2022-12-29T10:42:36;11.20;99.90
21787;DHT22;11055;50.870;4.316;2022-12-29T10:44:36;11.10;99.90
21787;DHT22;11055;50.870;4.316;2022-12-29T10:47:18;11.20;99.90
21787;DHT22;11055;50.870;4.316;2022-12-29T10:49:46;11.20;99.90
21787;DHT22;11055;50.870;4.316;2022-12-29T10:52:14;11.30;99.90
21787;DHT22;11055;50.870;4.316;2022-12-29T10:54:58;11.40;99.90
21787;DHT22;11055;50.870;4.316;2022-12-29T10:57:38;11.50;99.90
21787;DHT22;11055;50.870;4.316;2022-12-29T11:00:18;11.60;99.90
21787;DHT22;11055;50.870;4.316;2022-12-29T11:08:41;11.70;99.90
21787;DHT22;11055;50.870;4.316;2022-12-29T11:11:09;11.50;99.90
21787;DHT22;11055;50.870;4.316;2022-12-29T11:13:50;11.60;99.90
21787;DHT22;11055;50.870;4.316;2022-12-29T11:16:30;11.70;99.90
21787;DHT22;11055;50.870;4.316;2022-12-29T11:18:56;11.70;99.90
21787;DHT22;11055;50.870;4.316;2022-12-29T11:21:41;12.00;99.90
21787;DHT22;11055;50.870;4.316;2022-12-29T11:24:28;12.00;99.90
21787;DHT22;11055;50.870;4.316;2022-12-29T11:27:16;11.90;99.90
21787;DHT22;11055;50.870;4.316;2022-12-29T11:29:43;11.90;99.90
21787;DHT22;11055;50.870;4.316;2022-12-29T11:34:37;11.60;99.90
21787;DHT22;11055;50.870;4.316;2022-12-29T11:40:18;11.20;99.90
21787;DHT22;11055;50.870;4.316;2022-12-29T11:42:48;11.10;99.90
21787;DHT22;11055;50.870;4.316;2022-12-29T11:47:49;11.10;99.90
21787;DHT22;11055;50.870;4.316;2022-12-29T11:50:29;11.20;99.90
21787;DHT22;11055;50.870;4.316;2022-12-29T11:53:38;11.10;99.90
21787;DHT22;11055;50.870;4.316;2022-12-29T11:56:12;11.00;99.90
21787;DHT22;11055;50.870;4.316;2022-12-29T11:58:38;11.10;99.90
21787;DHT22;11055;50.870;4.316;2022-12-29T12:01:29;11.10;99.90
21787;DHT22;11055;50.870;4.316;2022-12-29T12:04:07;11.10;99.90
21787;DHT22;11055;50.870;4.316;2022-12-29T12:06:44;11.10;99.90
21787;DHT22;11055;50.870;4.316;2022-12-29T12:09:35;11.00;99.90
21787;DHT22;11055;50.870;4.316;2022-12-29T12:12:03;11.10;99.90
21787;DHT22;11055;50.870;4.316;2022-12-29T12:14:38;11.10;99.90
21787;DHT22;11055;50.870;4.316;2022-12-29T12:17:15;11.20;99.90
21787;DHT22;11055;50.870;4.316;2022-12-29T12:19:57;11.10;99.90
21787;DHT22;11055;50.870;4.316;2022-12-29T12:22:40;11.10;99.90
21787;DHT22;11055;50.870;4.316;2022-12-29T12:25:24;10.90;99.90
21787;DHT22;11055;50.870;4.316;2022-12-29T12:30:38;10.80;99.90
21787;DHT22;11055;50.870;4.316;2022-12-29T12:33:34;10.80;99.90
21787;DHT22;11055;50.870;4.316;2022-12-29T12:36:38;10.90;99.90
21787;DHT22;11055;50.870;4.316;2022-12-29T12:39:12;11.00;99.90
21787;DHT22;11055;50.870;4.316;2022-12-29T12:42:18;11.10;99.90
21787;DHT22;11055;50.870;4.316;2022-12-29T12:53:17;11.10;99.90
21787;DHT22;11055;50.870;4.316;2022-12-29T12:59:06;11.00;99.90
21787;DHT22;11055;50.870;4.316;2022-12-29T13:01:46;11.10;99.90
21787;DHT22;11055;50.870;4.316;2022-12-29T13:07:27;10.90;99.90
21787;DHT22;11055;50.870;4.316;2022-12-29T13:13:28;10.90;99.90
21787;DHT22;11055;50.870;4.316;2022-12-29T13:24:02;11.00;99.90
21787;DHT22;11055;50.870;4.316;2022-12-29T13:26:44;11.00;99.90
21787;DHT22;11055;50.870;4.316;2022-12-29T13:29:23;11.20;99.90
21787;DHT22;11055;50.870;4.316;2022-12-29T13:37:28;11.50;99.90
21787;DHT22;11055;50.870;4.316;2022-12-29T13:39:58;11.20;99.90
21787;DHT22;11055;50.870;4.316;2022-12-29T13:42:26;11.10;99.90
21787;DHT22;11055;50.870;4.316;2022-12-29T13:47:28;11.10;99.90
21787;DHT22;11055;50.870;4.316;2022-12-29T13:49:57;11.10;99.90
21787;DHT22;11055;50.870;4.316;2022-12-29T13:52:37;11.10;99.90
21787;DHT22;11055;50.870;4.316;2022-12-29T13:55:25;11.10;99.90
21787;DHT22;11055;50.870;4.316;2022-12-29T14:00:25;11.10;99.90
21787;DHT22;11055;50.870;4.316;2022-12-29T14:05:45;11.30;99.90
21787;DHT22;11055;50.870;4.316;2022-12-29T14:08:17;11.20;99.90
21787;DHT22;11055;50.870;4.316;2022-12-29T14:10:47;11.10;99.90
21787;DHT22;11055;50.870;4.316;2022-12-29T14:13:17;11.20;99.90
21787;DHT22;11055;50.870;4.316;2022-12-29T14:15:57;11.10;99.90
21787;DHT22;11055;50.870;4.316;2022-12-29T14:18:29;11.10;99.90
21787;DHT22;11055;50.870;4.316;2022-12-29T14:23:39;11.10;99.90
21787;DHT22;11055;50.870;4.316;2022-12-29T14:28:36;10.90;99.90
21787;DHT22;11055;50.870;4.316;2022-12-29T14:37:21;9.90;99.90
21787;DHT22;11055;50.870;4.316;2022-12-29T14:39:44;9.40;99.90
21787;DHT22;11055;50.870;4.316;2022-12-29T14:44:50;9.00;99.90
21787;DHT22;11055;50.870;4.316;2022-12-29T14:49:45;8.80;99.90
21787;DHT22;11055;50.870;4.316;2022-12-29T14:52:16;8.70;99.90
21787;DHT22;11055;50.870;4.316;2022-12-29T15:00:24;8.80;99.90
21787;DHT22;11055;50.870;4.316;2022-12-29T15:03:20;8.70;99.90
21787;DHT22;11055;50.870;4.316;2022-12-29T15:08:28;8.70;99.90
21787;DHT22;11055;50.870;4.316;2022-12-29T15:10:59;8.70;99.90
21787;DHT22;11055;50.870;4.316;2022-12-29T15:13:37;8.50;99.90
21787;DHT22;11055;50.870;4.316;2022-12-29T15:16:04;8.40;99.90
21787;DHT22;11055;50.870;4.316;2022-12-29T15:18:31;8.40;99.90
21787;DHT22;11055;50.870;4.316;2022-12-29T15:21:02;8.40;99.90
21787;DHT22;11055;50.870;4.316;2022-12-29T15:23:31;8.40;99.90
21787;DHT22;11055;50.870;4.316;2022-12-29T15:26:02;8.50;99.90
21787;DHT22;11055;50.870;4.316;2022-12-29T15:31:13;8.60;99.90
21787;DHT22;11055;50.870;4.316;2022-12-29T15:33:41;8.60;99.90
21787;DHT22;11055;50.870;4.316;2022-12-29T15:36:22;8.60;99.90
21787;DHT22;11055;50.870;4.316;2022-12-29T15:38:49;8.70;99.90
21787;DHT22;11055;50.870;4.316;2022-12-29T15:41:39;8.70;99.90
21787;DHT22;11055;50.870;4.316;2022-12-29T15:44:42;8.70;99.90
21787;DHT22;11055;50.870;4.316;2022-12-29T15:47:19;8.80;99.90
21787;DHT22;11055;50.870;4.316;2022-12-29T15:50:02;8.80;99.90
21787;DHT22;11055;50.870;4.316;2022-12-29T15:52:31;8.70;99.90
21787;DHT22;11055;50.870;4.316;2022-12-29T15:54:58;8.70;99.90
21787;DHT22;11055;50.870;4.316;2022-12-29T15:57:28;8.70;99.90
21787;DHT22;11055;50.870;4.316;2022-12-29T15:59:54;8.70;99.90
21787;DHT22;11055;50.870;4.316;2022-12-29T16:02:24;8.70;99.90
21787;DHT22;11055;50.870;4.316;2022-12-29T16:04:51;8.60;99.90
21787;DHT22;11055;50.870;4.316;2022-12-29T16:07:29;8.60;99.90
21787;DHT22;11055;50.870;4.316;2022-12-29T16:09:57;8.60;99.90
21787;DHT22;11055;50.870;4.316;2022-12-29T16:12:32;8.60;99.90
21787;DHT22;11055;50.870;4.316;2022-12-29T16:15:00;8.60;99.90
21787;DHT22;11055;50.870;4.316;2022-12-29T16:17:29;8.70;99.90
21787;DHT22;11055;50.870;4.316;2022-12-29T16:22:33;8.70;99.90
21787;DHT22;11055;50.870;4.316;2022-12-29T16:25:29;8.70;99.90
21787;DHT22;11055;50.870;4.316;2022-12-29T16:27:58;8.80;99.90
21787;DHT22;11055;50.870;4.316;2022-12-29T16:30:32;8.90;99.90
21787;DHT22;11055;50.870;4.316;2022-12-29T16:33:00;8.90;99.90
21787;DHT22;11055;50.870;4.316;2022-12-29T16:35:28;8.90;99.90
21787;DHT22;11055;50.870;4.316;2022-12-29T16:38:30;9.00;99.90
21787;DHT22;11055;50.870;4.316;2022-12-29T16:40:59;9.00;99.90
21787;DHT22;11055;50.870;4.316;2022-12-29T16:43:32;8.90;99.90
21787;DHT22;11055;50.870;4.316;2022-12-29T16:48:42;8.90;99.90
21787;DHT22;11055;50.870;4.316;2022-12-29T16:51:13;9.00;99.90
21787;DHT22;11055;50.870;4.316;2022-12-29T16:53:41;8.90;99.90
21787;DHT22;11055;50.870;4.316;2022-12-29T16:56:17;9.00;99.90
21787;DHT22;11055;50.870;4.316;2022-12-29T16:58:47;9.10;99.90
21787;DHT22;11055;50.870;4.316;2022-12-29T17:01:14;9.20;99.90
21787;DHT22;11055;50.870;4.316;2022-12-29T17:03:53;9.10;99.90
21787;DHT22;11055;50.870;4.316;2022-12-29T17:06:20;9.10;99.90
21787;DHT22;11055;50.870;4.316;2022-12-29T17:08:47;9.10;99.90
21787;DHT22;11055;50.870;4.316;2022-12-29T17:11:23;9.10;99.90
21787;DHT22;11055;50.870;4.316;2022-12-29T17:16:57;9.20;99.90
21787;DHT22;11055;50.870;4.316;2022-12-29T17:19:31;9.20;99.90
21787;DHT22;11055;50.870;4.316;2022-12-29T17:21:57;9.30;99.90
21787;DHT22;11055;50.870;4.316;2022-12-29T17:24:23;9.20;99.90
21787;DHT22;11055;50.870;4.316;2022-12-29T17:26:51;9.10;99.90
21787;DHT22;11055;50.870;4.316;2022-12-29T17:31:51;9.10;99.90
21787;DHT22;11055;50.870;4.316;2022-12-29T17:34:18;9.10;99.90
21787;DHT22;11055;50.870;4.316;2022-12-29T17:36:44;9.00;99.90
21787;DHT22;11055;50.870;4.316;2022-12-29T17:39:10;9.00;99.90
21787;DHT22;11055;50.870;4.316;2022-12-29T17:41:36;8.90;99.90
21787;DHT22;11055;50.870;4.316;2022-12-29T17:44:03;8.90;99.90
21787;DHT22;11055;50.870;4.316;2022-12-29T17:46:29;8.80;99.90
21787;DHT22;11055;50.870;4.316;2022-12-29T17:48:55;8.80;99.90
21787;DHT22;11055;50.870;4.316;2022-12-29T17:51:21;8.80;99.90
21787;DHT22;11055;50.870;4.316;2022-12-29T17:53:47;8.80;99.90
21787;DHT22;11055;50.870;4.316;2022-12-29T17:56:13;8.80;99.90
21787;DHT22;11055;50.870;4.316;2022-12-29T17:58:39;8.80;99.90
21787;DHT22;11055;50.870;4.316;2022-12-29T18:01:05;8.80;99.90
21787;DHT22;11055;50.870;4.316;2022-12-29T18:03:35;8.70;99.90
21787;DHT22;11055;50.870;4.316;2022-12-29T18:06:02;8.80;99.90
21787;DHT22;11055;50.870;4.316;2022-12-29T18:08:31;8.80;99.90
21787;DHT22;11055;50.870;4.316;2022-12-29T18:10:57;8.80;99.90
21787;DHT22;11055;50.870;4.316;2022-12-29T18:13:24;8.80;99.90
21787;DHT22;11055;50.870;4.316;2022-12-29T18:15:51;8.80;99.90
21787;DHT22;11055;50.870;4.316;2022-12-29T18:18:20;8.80;99.90
21787;DHT22;11055;50.870;4.316;2022-12-29T18:20:49;8.90;99.90
21787;DHT22;11055;50.870;4.316;2022-12-29T18:25:51;8.80;99.90
21787;DHT22;11055;50.870;4.316;2022-12-29T18:28:17;8.80;99.90
21787;DHT22;11055;50.870;4.316;2022-12-29T18:30:43;8.80;99.90
21787;DHT22;11055;50.870;4.316;2022-12-29T18:33:16;8.80;99.90